createdAt,value
2018-08-17T00:01:39.824Z,56.95
2018-08-17T00:04:08.605Z,55.23
2018-08-17T00:06:37.403Z,56.98
2018-08-17T00:09:09.240Z,58.56
2018-08-17T00:11:38.068Z,60.09
2018-08-17T00:14:07.259Z,60.23
2018-08-17T00:16:36.028Z,59.87
2018-08-17T00:19:05.124Z,59.84
2018-08-17T00:21:34.312Z,58.80
2018-08-17T00:24:03.103Z,58.31
2018-08-17T00:26:33.946Z,59.46
2018-08-17T00:29:02.806Z,59.95
2018-08-17T00:31:31.561Z,58.15
2018-08-17T00:34:00.758Z,58.34
2018-08-17T00:36:29.521Z,56.79
2018-08-17T00:38:58.275Z,58.02
2018-08-17T00:41:27.045Z,57.50
2018-08-17T00:43:55.821Z,58.84
2018-08-17T00:46:24.625Z,58.89
2018-08-17T00:48:53.423Z,59.60
2018-08-17T00:51:24.031Z,59.70
2018-08-17T00:53:54.078Z,60.18
2018-08-17T00:56:22.900Z,59.63
2018-08-17T00:58:51.805Z,60.00
2018-08-17T01:01:22.974Z,59.61
2018-08-17T01:03:53.100Z,61.21
2018-08-17T01:06:24.059Z,60.21
2018-08-17T01:08:54.677Z,60.18
2018-08-17T01:11:23.561Z,59.89
2018-08-17T01:13:52.685Z,61.93
2018-08-17T01:16:21.793Z,61.44
2018-08-17T01:18:52.006Z,61.82
2018-08-17T01:21:21.075Z,60.01
2018-08-17T01:23:50.628Z,62.81
2018-08-17T01:26:19.421Z,62.20
2018-08-17T01:28:49.213Z,60.43
2018-08-17T01:31:18.244Z,61.68
2018-08-17T01:33:47.057Z,62.59
2018-08-17T01:36:15.858Z,61.76
2018-08-17T01:38:45.924Z,62.10
2018-08-17T01:41:14.712Z,62.90
2018-08-17T01:43:44.195Z,62.44
2018-08-17T01:46:12.969Z,61.86
2018-08-17T01:48:41.724Z,62.06
2018-08-17T01:51:10.473Z,62.16
2018-08-17T01:53:39.221Z,62.82
2018-08-17T01:56:07.992Z,63.07
2018-08-17T01:58:36.772Z,63.10
2018-08-17T02:01:05.550Z,64.45
2018-08-17T02:03:34.426Z,63.54
2018-08-17T02:06:03.273Z,64.19
2018-08-17T02:08:32.101Z,64.87
2018-08-17T02:11:00.880Z,64.65
2018-08-17T02:13:29.637Z,64.21
2018-08-17T02:15:58.432Z,64.97
2018-08-17T02:18:27.183Z,65.50
2018-08-17T02:20:55.936Z,65.25
2018-08-17T02:23:24.671Z,65.17
2018-08-17T02:25:53.457Z,65.49
2018-08-17T02:28:22.241Z,65.51
2018-08-17T02:30:51.033Z,66.54
2018-08-17T02:33:21.506Z,65.88
2018-08-17T02:35:51.205Z,66.61
2018-08-17T02:38:21.566Z,66.13
2018-08-17T02:40:52.022Z,64.98
2018-08-17T02:43:23.529Z,68.02
2018-08-17T02:45:54.180Z,65.59
2018-08-17T02:48:23.007Z,67.65
2018-08-17T02:50:53.409Z,67.73
2018-08-17T02:53:22.278Z,66.14
2018-08-17T02:55:52.732Z,65.80
2018-08-17T02:58:24.044Z,64.43
2018-08-17T03:00:54.256Z,65.49
2018-08-17T03:03:23.224Z,65.81
2018-08-17T03:05:53.538Z,65.58
2018-08-17T03:08:24.390Z,66.15
2018-08-17T03:10:53.176Z,66.81
2018-08-17T03:13:22.038Z,64.26
2018-08-17T03:15:50.822Z,66.40
2018-08-17T03:18:19.582Z,65.46
2018-08-17T03:20:48.353Z,65.51
2018-08-17T03:23:17.161Z,65.61
2018-08-17T03:25:46.038Z,67.10
2018-08-17T03:28:14.850Z,65.92
2018-08-17T03:30:44.449Z,66.08
2018-08-17T03:33:15.144Z,67.48
2018-08-17T03:35:45.518Z,66.93
2018-08-17T03:38:15.095Z,67.06
2018-08-17T03:40:45.558Z,67.54
2018-08-17T03:43:16.028Z,68.47
2018-08-17T03:45:45.741Z,68.79
2018-08-17T03:48:14.528Z,68.33
2018-08-17T03:50:44.642Z,67.68
2018-08-17T03:53:13.469Z,67.26
2018-08-17T03:55:43.841Z,67.79
2018-08-17T03:58:12.675Z,67.02
2018-08-17T04:00:43.108Z,67.72
2018-08-17T04:03:13.516Z,68.05
2018-08-17T04:05:43.736Z,68.46
2018-08-17T04:08:13.672Z,67.29
2018-08-17T04:10:44.030Z,69.46
2018-08-17T04:13:14.005Z,68.59
2018-08-17T04:15:44.797Z,68.29
2018-08-17T04:18:15.021Z,67.93
2018-08-17T04:20:45.329Z,67.61
2018-08-17T04:23:14.061Z,67.01
2018-08-17T04:25:44.137Z,67.52
2018-08-17T04:28:14.580Z,67.93
2018-08-17T04:30:45.232Z,69.50
2018-08-17T04:33:15.265Z,68.84
2018-08-17T04:35:44.835Z,69.17
2018-08-17T04:38:14.781Z,69.55
2018-08-17T04:40:45.161Z,70.24
2018-08-17T04:43:17.947Z,70.25
2018-08-17T04:45:46.806Z,69.30
2018-08-17T04:48:15.609Z,69.05
2018-08-17T04:50:44.738Z,68.66
2018-08-17T04:53:13.558Z,69.06
2018-08-17T04:55:42.352Z,67.22
2018-08-17T04:58:11.388Z,68.37
2018-08-17T05:00:40.224Z,65.12
2018-08-17T05:03:09.361Z,66.25
2018-08-17T05:05:38.623Z,67.30
2018-08-17T05:08:07.387Z,65.83
2018-08-17T05:10:36.152Z,66.11
2018-08-17T05:13:05.583Z,65.85
2018-08-17T05:15:35.956Z,66.87
2018-08-17T05:18:06.099Z,67.56
2018-08-17T05:20:36.158Z,65.36
2018-08-17T05:23:06.376Z,65.52
2018-08-17T05:25:35.143Z,64.70
2018-08-17T05:28:06.216Z,63.78
2018-08-17T05:30:35.592Z,63.38
2018-08-17T05:33:04.697Z,63.75
2018-08-17T05:35:33.814Z,63.34
2018-08-17T05:38:02.913Z,62.47
2018-08-17T05:40:31.891Z,62.02
2018-08-17T05:43:01.024Z,61.84
2018-08-17T05:45:29.984Z,60.78
2018-08-17T05:47:59.085Z,60.65
2018-08-17T05:50:32.264Z,59.93
2018-08-17T05:53:02.188Z,59.86
2018-08-17T05:55:31.448Z,60.23
2018-08-17T05:58:00.376Z,58.84
2018-08-17T06:00:29.289Z,59.50
2018-08-17T06:02:58.407Z,59.04
2018-08-17T06:05:27.493Z,58.08
2018-08-17T06:07:56.481Z,58.30
2018-08-17T06:10:25.639Z,57.98
2018-08-17T06:12:54.749Z,58.60
2018-08-17T06:15:23.864Z,57.07
2018-08-17T06:17:52.843Z,57.49
2018-08-17T06:20:21.863Z,57.65
2018-08-17T06:22:50.896Z,57.58
2018-08-17T06:25:20.040Z,56.65
2018-08-17T06:27:49.008Z,55.80
2018-08-17T06:30:18.233Z,55.50
2018-08-17T06:32:47.206Z,53.67
2018-08-17T06:35:16.294Z,52.42
2018-08-17T06:37:45.303Z,51.92
2018-08-17T06:40:14.501Z,51.81
2018-08-17T06:42:43.496Z,52.01
2018-08-17T06:45:13.152Z,50.35
2018-08-17T06:47:42.385Z,51.14
2018-08-17T06:50:12.066Z,50.44
2018-08-17T06:52:42.075Z,49.64
2018-08-17T06:55:12.067Z,48.52
2018-08-17T06:57:41.189Z,48.82
2018-08-17T07:00:14.503Z,46.33
2018-08-17T07:02:44.784Z,43.66
2018-08-17T07:05:14.017Z,43.27
2018-08-17T07:07:43.348Z,41.40
2018-08-17T07:10:13.528Z,39.85
2018-08-17T07:12:42.908Z,39.29
2018-08-17T07:15:12.420Z,37.56
2018-08-17T07:17:41.929Z,35.54
2018-08-17T07:20:12.566Z,35.88
2018-08-17T07:22:42.262Z,35.78
2018-08-17T07:25:11.313Z,33.26
2018-08-17T07:27:40.335Z,31.79
2018-08-17T07:30:10.425Z,32.04
2018-08-17T07:32:39.428Z,34.24
2018-08-17T07:35:09.819Z,33.16
2018-08-17T07:37:38.749Z,31.88
2018-08-17T07:40:08.089Z,32.07
2018-08-17T07:42:36.889Z,30.18
2018-08-17T07:45:06.393Z,30.01
2018-08-17T07:47:36.034Z,29.13
2018-08-17T07:50:04.853Z,30.80
2018-08-17T07:52:33.644Z,30.86
2018-08-17T07:55:02.956Z,30.83
2018-08-17T07:57:31.708Z,30.88
2018-08-17T08:00:00.504Z,30.66
2018-08-17T08:02:29.269Z,31.78
2018-08-17T08:04:58.068Z,31.23
2018-08-17T08:07:26.817Z,32.55
2018-08-17T08:09:55.582Z,35.21
2018-08-17T08:12:24.362Z,35.80
2018-08-17T08:14:53.110Z,37.40
2018-08-17T08:17:21.889Z,38.44
2018-08-17T08:20:01.826Z,39.72
2018-08-17T08:22:30.617Z,38.94
2018-08-17T08:24:59.375Z,37.39
2018-08-17T08:27:28.128Z,37.94
2018-08-17T08:29:56.983Z,36.79
2018-08-17T08:32:25.793Z,37.33
2018-08-17T08:34:54.508Z,34.72
2018-08-17T08:37:26.228Z,36.75
2018-08-17T08:39:54.991Z,36.03
2018-08-17T08:42:23.736Z,37.39
2018-08-17T08:44:52.504Z,38.21
2018-08-17T08:47:21.240Z,39.44
2018-08-17T08:49:49.993Z,39.97
2018-08-17T08:52:18.776Z,41.18
2018-08-17T08:54:47.527Z,39.68
2018-08-17T08:57:16.388Z,39.97
2018-08-17T08:59:45.120Z,41.36
2018-08-17T09:02:13.876Z,41.96
2018-08-17T09:04:42.639Z,41.51
2018-08-17T09:07:11.421Z,41.06
2018-08-17T09:09:40.168Z,39.07
2018-08-17T09:12:08.953Z,39.69
2018-08-17T09:14:37.703Z,38.78
2018-08-17T09:17:06.525Z,39.71
2018-08-17T09:19:35.308Z,36.65
2018-08-17T09:22:04.094Z,37.54
2018-08-17T09:24:32.881Z,36.77
2018-08-17T09:27:01.659Z,36.41
2018-08-17T09:29:30.460Z,37.14
2018-08-17T09:31:59.215Z,34.89
2018-08-17T09:34:27.965Z,34.84
2018-08-17T09:36:56.723Z,35.57
2018-08-17T09:39:25.566Z,35.34
2018-08-17T09:41:54.368Z,35.39
2018-08-17T09:44:23.564Z,34.25
2018-08-17T09:46:52.333Z,33.97
2018-08-17T09:49:21.162Z,33.22
2018-08-17T09:51:49.918Z,32.88
2018-08-17T09:54:18.664Z,33.16
2018-08-17T09:56:47.456Z,33.34
2018-08-17T09:59:16.203Z,33.98
2018-08-17T10:01:50.048Z,33.92
2018-08-17T10:04:24.100Z,34.89
2018-08-17T10:06:58.100Z,33.16
2018-08-17T10:09:32.036Z,35.01
2018-08-17T10:12:00.792Z,33.36
2018-08-17T10:14:29.521Z,34.23
2018-08-17T10:16:58.303Z,32.00
2018-08-17T10:19:27.052Z,30.84
2018-08-17T10:21:56.428Z,32.85
2018-08-17T10:24:25.357Z,34.20
2018-08-17T10:26:55.081Z,33.78
2018-08-17T10:29:24.060Z,32.95
2018-08-17T10:31:52.829Z,34.24
2018-08-17T10:34:21.652Z,33.18
2018-08-17T10:36:50.373Z,33.21
2018-08-17T10:39:19.155Z,33.11
2018-08-17T10:41:47.932Z,32.36
2018-08-17T10:44:16.677Z,34.00
2018-08-17T10:46:45.416Z,33.52
2018-08-17T10:49:14.261Z,31.15
2018-08-17T10:51:42.964Z,32.50
2018-08-17T10:54:11.738Z,31.83
2018-08-17T10:56:40.475Z,31.94
2018-08-17T10:59:09.241Z,30.94
2018-08-17T11:01:43.191Z,33.23
2018-08-17T11:04:11.969Z,31.42
2018-08-17T11:06:40.796Z,32.08
2018-08-17T11:09:10.639Z,32.81
2018-08-17T11:11:41.253Z,30.98
2018-08-17T11:14:09.997Z,32.95
2018-08-17T11:16:38.760Z,33.08
2018-08-17T11:19:07.572Z,34.13
2018-08-17T11:21:36.326Z,34.86
2018-08-17T11:24:05.193Z,35.42
2018-08-17T11:26:33.928Z,35.95
2018-08-17T11:29:02.677Z,33.96
2018-08-17T11:31:31.437Z,34.92
2018-08-17T11:34:00.185Z,34.57
2018-08-17T11:36:28.904Z,35.35
2018-08-17T11:38:57.628Z,34.68
2018-08-17T11:41:26.430Z,31.70
2018-08-17T11:43:58.590Z,31.95
2018-08-17T11:46:27.338Z,32.66
2018-08-17T11:48:56.125Z,33.75
2018-08-17T11:51:24.868Z,34.81
2018-08-17T11:53:53.609Z,36.30
2018-08-17T11:56:22.369Z,35.54
2018-08-17T11:58:51.124Z,37.58
2018-08-17T12:01:24.961Z,36.80
2018-08-17T12:03:53.748Z,35.88
2018-08-17T12:06:22.528Z,35.74
2018-08-17T12:08:51.281Z,35.18
2018-08-17T12:11:20.010Z,32.89
2018-08-17T12:13:48.752Z,32.12
2018-08-17T12:16:17.504Z,33.50
2018-08-17T12:18:46.263Z,29.49
2018-08-17T12:21:15.008Z,29.34
2018-08-17T12:23:43.747Z,29.16
2018-08-17T12:26:12.505Z,29.21
2018-08-17T12:28:41.272Z,28.72
2018-08-17T12:31:10.091Z,27.96
2018-08-17T12:33:38.835Z,29.63
2018-08-17T12:36:08.697Z,30.14
2018-08-17T12:38:37.449Z,31.32
2018-08-17T12:41:06.260Z,31.46
2018-08-17T12:43:37.986Z,30.27
2018-08-17T12:46:06.952Z,28.25
2018-08-17T12:48:35.719Z,29.01
2018-08-17T12:51:05.661Z,27.44
2018-08-17T12:53:34.416Z,28.25
2018-08-17T12:56:03.228Z,27.02
2018-08-17T12:58:32.016Z,26.51
2018-08-17T13:01:00.792Z,28.39
2018-08-17T13:03:29.544Z,28.37
2018-08-17T13:05:58.284Z,26.47
2018-08-17T13:08:27.035Z,27.46
2018-08-17T13:10:58.904Z,27.80
2018-08-17T13:13:27.680Z,28.77
2018-08-17T13:16:01.735Z,27.41
2018-08-17T13:18:33.319Z,26.95
2018-08-17T13:21:02.240Z,29.59
2018-08-17T13:23:30.993Z,28.80
2018-08-17T13:25:59.745Z,30.09
2018-08-17T13:28:28.531Z,29.69
2018-08-17T13:30:57.393Z,29.82
2018-08-17T13:33:26.157Z,31.02
2018-08-17T13:35:54.953Z,28.61
2018-08-17T13:38:24.313Z,28.99
2018-08-17T13:40:53.200Z,28.82
2018-08-17T13:43:22.075Z,29.60
2018-08-17T13:45:50.989Z,30.62
2018-08-17T13:48:19.752Z,31.58
2018-08-17T13:50:48.542Z,30.50
2018-08-17T13:53:17.310Z,31.14
2018-08-17T13:55:46.060Z,32.12
2018-08-17T13:58:14.832Z,30.47
2018-08-17T14:00:43.634Z,32.30
2018-08-17T14:03:12.842Z,33.92
2018-08-17T14:05:43.176Z,32.43
2018-08-17T14:08:13.104Z,33.62
2018-08-17T14:10:41.850Z,32.55
2018-08-17T14:13:10.661Z,33.58
2018-08-17T14:15:39.524Z,31.83
2018-08-17T14:18:08.292Z,32.45
2018-08-17T14:20:37.219Z,31.85
2018-08-17T14:23:06.009Z,32.59
2018-08-17T14:25:34.956Z,32.93
2018-08-17T14:28:03.717Z,33.11
2018-08-17T14:30:32.525Z,33.24
2018-08-17T14:33:01.292Z,33.84
2018-08-17T14:35:30.028Z,34.24
2018-08-17T14:37:58.756Z,33.27
2018-08-17T14:40:27.571Z,33.55
2018-08-17T14:42:56.294Z,34.37
2018-08-17T14:45:25.092Z,33.63
2018-08-17T14:47:53.846Z,32.83
2018-08-17T14:50:22.605Z,31.50
2018-08-17T14:52:51.452Z,31.86
2018-08-17T14:55:20.188Z,31.95
2018-08-17T14:57:48.998Z,32.53
2018-08-17T15:00:17.777Z,31.89
2018-08-17T15:02:46.523Z,30.61
2018-08-17T15:05:15.997Z,31.44
2018-08-17T15:07:44.768Z,31.07
2018-08-17T15:10:14.588Z,31.67
2018-08-17T15:12:44.137Z,31.00
2018-08-17T15:15:13.490Z,30.46
2018-08-17T15:17:42.630Z,31.40
2018-08-17T15:20:12.795Z,32.58
2018-08-17T15:22:41.922Z,31.65
2018-08-17T15:25:10.707Z,32.83
2018-08-17T15:27:39.521Z,33.40
2018-08-17T15:30:10.415Z,33.26
2018-08-17T15:32:39.925Z,32.29
2018-08-17T15:35:10.164Z,32.84
2018-08-17T15:37:39.821Z,31.56
2018-08-17T15:40:11.196Z,33.27
2018-08-17T15:42:40.276Z,32.33
2018-08-17T15:45:09.723Z,33.92
2018-08-17T15:47:38.548Z,33.07
2018-08-17T15:50:17.125Z,33.40
2018-08-17T15:52:46.040Z,33.55
2018-08-17T15:55:15.128Z,32.96
2018-08-17T15:57:44.013Z,33.25
2018-08-17T16:00:17.199Z,33.88
2018-08-17T16:02:46.369Z,33.70
2018-08-17T16:05:15.185Z,34.23
2018-08-17T16:07:44.088Z,33.68
2018-08-17T16:10:14.634Z,35.11
2018-08-17T16:12:43.674Z,34.55
2018-08-17T16:15:12.527Z,35.20
2018-08-17T16:17:41.654Z,35.23
2018-08-17T16:20:12.005Z,35.25
2018-08-17T16:22:41.200Z,36.58
2018-08-17T16:25:10.881Z,34.79
2018-08-17T16:27:39.989Z,36.21
2018-08-17T16:30:10.519Z,38.78
2018-08-17T16:32:39.528Z,38.03
2018-08-17T16:35:08.473Z,39.29
2018-08-17T16:37:42.120Z,40.42
2018-08-17T16:40:10.906Z,40.47
2018-08-17T16:42:39.712Z,39.78
2018-08-17T16:45:09.284Z,39.99
2018-08-17T16:47:38.059Z,40.58
2018-08-17T16:50:08.061Z,39.47
2018-08-17T16:52:36.824Z,39.28
2018-08-17T16:55:05.857Z,38.61
2018-08-17T16:57:34.688Z,38.79
2018-08-17T17:00:03.575Z,39.38
2018-08-17T17:02:32.424Z,40.20
2018-08-17T17:05:01.290Z,39.03
2018-08-17T17:07:31.800Z,40.23
2018-08-17T17:10:01.062Z,40.04
2018-08-17T17:12:29.896Z,40.30
2018-08-17T17:15:11.392Z,39.80
2018-08-17T17:17:40.169Z,39.81
2018-08-17T17:20:09.220Z,39.56
2018-08-17T17:22:38.041Z,40.64
2018-08-17T17:25:12.220Z,41.65
2018-08-17T17:27:41.209Z,42.03
2018-08-17T17:30:09.969Z,42.16
2018-08-17T17:32:38.791Z,43.21
2018-08-17T17:35:07.953Z,43.57
2018-08-17T17:37:36.804Z,46.23
2018-08-17T17:40:06.242Z,46.50
2018-08-17T17:42:35.079Z,46.84
2018-08-17T17:45:04.225Z,46.54
2018-08-17T17:47:33.021Z,46.27
2018-08-17T17:50:02.017Z,47.66
2018-08-17T17:52:31.226Z,48.42
2018-08-17T17:55:00.148Z,48.66
2018-08-17T17:57:28.909Z,48.84
2018-08-17T17:59:58.668Z,49.12
2018-08-17T18:02:28.544Z,49.12
2018-08-17T18:04:57.460Z,49.39
2018-08-17T18:07:34.064Z,48.55
2018-08-17T18:10:03.541Z,49.42
2018-08-17T18:12:32.351Z,49.46
2018-08-17T18:15:01.105Z,50.78
2018-08-17T18:17:30.052Z,51.42
2018-08-17T18:19:58.978Z,51.27
2018-08-17T18:22:33.181Z,51.95
2018-08-17T18:25:07.324Z,53.02
2018-08-17T18:27:36.604Z,52.57
2018-08-17T18:30:06.104Z,53.47
2018-08-17T18:32:34.868Z,53.55
2018-08-17T18:35:04.034Z,53.91
2018-08-17T18:37:32.767Z,53.30
2018-08-17T18:40:01.544Z,54.50
2018-08-17T18:42:30.748Z,54.32
2018-08-17T18:45:00.105Z,55.32
2018-08-17T18:47:30.393Z,55.30
2018-08-17T18:49:59.956Z,54.79
2018-08-17T18:52:30.715Z,55.54
2018-08-17T18:55:00.724Z,55.54
2018-08-17T18:57:31.388Z,55.82
2018-08-17T19:00:02.041Z,55.47
2018-08-17T19:02:30.975Z,57.11
2018-08-17T19:05:01.412Z,56.93
2018-08-17T19:07:31.415Z,56.35
2018-08-17T19:10:00.238Z,56.22
2018-08-17T19:12:30.365Z,56.27
2018-08-17T19:15:01.415Z,57.40
2018-08-17T19:17:33.688Z,57.11
2018-08-17T19:20:03.056Z,56.78
2018-08-17T19:22:40.036Z,56.95
2018-08-17T19:25:11.873Z,57.36
2018-08-17T19:27:42.561Z,56.41
2018-08-17T19:30:24.107Z,55.51
2018-08-17T19:32:55.579Z,55.10
2018-08-17T19:35:25.751Z,55.58
2018-08-17T19:37:55.460Z,57.44
2018-08-17T19:40:24.436Z,56.15
2018-08-17T19:42:53.191Z,54.99
2018-08-17T19:45:21.977Z,54.69
2018-08-17T19:47:51.020Z,53.95
2018-08-17T19:50:19.928Z,52.37
2018-08-17T19:52:48.792Z,51.74
2018-08-17T19:55:18.057Z,50.79
2018-08-17T19:57:46.845Z,51.47
2018-08-17T20:00:15.648Z,52.32
2018-08-17T20:02:44.549Z,51.03
2018-08-17T20:05:13.516Z,51.00
2018-08-17T20:07:42.383Z,53.52
2018-08-17T20:10:12.688Z,55.02
2018-08-17T20:12:42.183Z,54.34
2018-08-17T20:15:11.899Z,53.12
2018-08-17T20:17:41.084Z,51.32
2018-08-17T20:20:11.137Z,53.85
2018-08-17T20:22:40.376Z,51.89
2018-08-17T20:25:13.716Z,53.57
2018-08-17T20:27:43.003Z,54.14
2018-08-17T20:30:16.934Z,55.03
2018-08-17T20:32:46.352Z,55.32
2018-08-17T20:35:15.388Z,54.41
2018-08-17T20:37:46.160Z,55.72
2018-08-17T20:40:15.198Z,57.28
2018-08-17T20:42:44.374Z,57.15
2018-08-17T20:45:13.329Z,55.83
2018-08-17T20:47:42.849Z,56.82
2018-08-17T20:50:14.603Z,56.78
2018-08-17T20:52:47.968Z,57.92
2018-08-17T20:55:16.736Z,56.48
2018-08-17T20:57:48.343Z,57.29
2018-08-17T21:00:17.371Z,58.28
2018-08-17T21:02:46.828Z,58.04
2018-08-17T21:05:21.988Z,59.46
2018-08-17T21:07:51.418Z,59.98
2018-08-17T21:10:20.488Z,59.44
2018-08-17T21:12:49.654Z,59.07
2018-08-17T21:15:18.858Z,59.36
2018-08-17T21:17:48.201Z,59.63
2018-08-17T21:20:16.929Z,60.57
2018-08-17T21:22:45.722Z,61.34
2018-08-17T21:25:14.529Z,61.98
2018-08-17T21:27:43.363Z,63.51
2018-08-17T21:30:12.449Z,63.73
2018-08-17T21:32:41.192Z,64.70
2018-08-17T21:35:10.112Z,64.84
2018-08-17T21:37:38.935Z,64.90
2018-08-17T21:40:16.537Z,65.23
2018-08-17T21:42:45.439Z,65.90
2018-08-17T21:45:14.200Z,65.65
2018-08-17T21:47:43.003Z,66.34
2018-08-17T21:50:14.830Z,65.82
2018-08-17T21:52:44.826Z,65.87
2018-08-17T21:55:13.932Z,65.68
2018-08-17T21:57:43.077Z,66.55
2018-08-17T22:00:20.088Z,65.72
2018-08-17T22:02:49.192Z,66.37
2018-08-17T22:05:22.201Z,66.17
2018-08-17T22:07:51.054Z,65.25
2018-08-17T22:10:19.973Z,65.33
2018-08-17T22:12:48.752Z,65.41
2018-08-17T22:15:17.584Z,65.03
2018-08-17T22:17:46.548Z,66.06
2018-08-17T22:20:15.345Z,65.19
2018-08-17T22:22:44.172Z,65.47
2018-08-17T22:25:14.829Z,65.60
2018-08-17T22:27:43.749Z,65.54
2018-08-17T22:30:23.161Z,66.01
2018-08-17T22:32:51.974Z,66.15
2018-08-17T22:35:20.819Z,66.45
2018-08-17T22:37:49.634Z,66.31
2018-08-17T22:40:18.464Z,67.15
2018-08-17T22:42:48.864Z,68.47
2018-08-17T22:45:17.675Z,69.13
2018-08-17T22:47:46.723Z,68.82
2018-08-17T22:50:15.548Z,68.40
2018-08-17T22:52:44.344Z,69.13
2018-08-17T22:55:13.140Z,68.57
2018-08-17T22:57:42.022Z,68.77
2018-08-17T23:00:22.661Z,68.36
2018-08-17T23:03:00.485Z,68.60
2018-08-17T23:05:31.380Z,68.08
2018-08-17T23:08:00.148Z,67.83
2018-08-17T23:10:29.578Z,69.64
2018-08-17T23:12:58.761Z,71.70
2018-08-17T23:15:27.628Z,71.36
2018-08-17T23:17:57.584Z,73.51
2018-08-17T23:20:31.707Z,74.16
2018-08-17T23:23:01.697Z,73.39
2018-08-17T23:25:30.911Z,74.13
2018-08-17T23:27:59.780Z,73.85
2018-08-17T23:30:28.583Z,74.93
2018-08-17T23:32:57.368Z,74.77
2018-08-17T23:35:26.224Z,73.92
2018-08-17T23:37:54.986Z,74.77
2018-08-17T23:40:23.862Z,74.92
2018-08-17T23:42:52.627Z,75.50
2018-08-17T23:45:21.384Z,76.11
2018-08-17T23:47:50.180Z,76.54
2018-08-17T23:50:18.960Z,76.92
2018-08-17T23:52:47.717Z,77.23
2018-08-17T23:55:17.702Z,77.19
2018-08-17T23:57:46.469Z,76.79
